createdAt,value
2024-02-12T00:00:24.591Z,3.92
2024-02-12T00:02:52.877Z,2.97
2024-02-12T00:05:22.621Z,4.40
2024-02-12T00:07:51.060Z,4.05
2024-02-12T00:10:19.392Z,4.82
2024-02-12T00:12:47.740Z,4.28
2024-02-12T00:15:16.002Z,4.75
2024-02-12T00:17:44.366Z,4.97
2024-02-12T00:20:18.141Z,4.72
2024-02-12T00:22:48.784Z,4.50
2024-02-12T00:25:17.254Z,4.45
2024-02-12T00:27:45.460Z,4.22
2024-02-12T00:30:16.192Z,4.75
2024-02-12T00:32:45.727Z,4.32
2024-02-12T00:37:45.205Z,4.15
2024-02-12T00:40:16.230Z,4.47
2024-02-12T00:42:45.784Z,4.78
2024-02-12T00:45:16.076Z,4.10
2024-02-12T00:47:45.065Z,4.47
2024-02-12T00:50:13.454Z,4.20
2024-02-12T00:52:42.353Z,3.97
2024-02-12T00:55:14.369Z,4.00
2024-02-12T00:57:44.591Z,4.63
2024-02-12T01:00:15.869Z,4.20
2024-02-12T01:02:45.152Z,4.25
2024-02-12T01:05:15.205Z,4.82
2024-02-12T01:07:44.310Z,4.30
2024-02-12T01:10:14.447Z,4.40
2024-02-12T01:12:45.193Z,4.30
2024-02-12T01:15:13.699Z,4.88
2024-02-12T01:17:47.136Z,3.20
2024-02-12T01:20:19.757Z,4.78
2024-02-12T01:22:49.571Z,4.38
2024-02-12T01:25:18.919Z,4.95
2024-02-12T01:27:48.642Z,5.00
2024-02-12T01:30:17.001Z,4.82
2024-02-12T01:32:45.520Z,5.13
2024-02-12T01:35:14.008Z,5.10
2024-02-12T01:37:42.606Z,4.72
2024-02-12T01:40:12.915Z,4.73
2024-02-12T01:42:41.740Z,5.13
2024-02-12T01:45:15.279Z,4.77
2024-02-12T01:47:47.848Z,4.43
2024-02-12T01:50:17.373Z,4.68
2024-02-12T01:55:20.100Z,5.10
2024-02-12T01:57:51.574Z,5.00
2024-02-12T02:02:58.665Z,4.65
2024-02-12T02:05:27.658Z,4.22
2024-02-12T02:07:58.442Z,4.38
2024-02-12T02:10:27.399Z,4.55
2024-02-12T02:12:58.009Z,4.18
2024-02-12T02:15:27.398Z,4.80
2024-02-12T02:17:56.215Z,4.75
2024-02-12T02:20:28.132Z,4.68
2024-02-12T02:22:57.420Z,4.47
2024-02-12T02:25:27.016Z,4.18
2024-02-12T02:27:55.419Z,4.10
2024-02-12T02:30:23.692Z,4.57
2024-02-12T02:32:52.611Z,3.92
2024-02-12T02:35:21.061Z,3.95
2024-02-12T02:37:49.546Z,4.32
2024-02-12T02:40:17.880Z,4.00
2024-02-12T02:42:48.573Z,4.82
2024-02-12T02:45:17.114Z,4.10
2024-02-12T02:47:45.600Z,4.00
2024-02-12T02:50:14.034Z,4.57
2024-02-12T02:52:42.305Z,3.80
2024-02-12T02:55:12.913Z,4.20
2024-02-12T02:57:41.552Z,4.25
2024-02-12T03:00:12.670Z,4.22
2024-02-12T03:02:42.950Z,4.30
2024-02-12T03:05:13.149Z,4.68
2024-02-12T03:07:44.490Z,4.07
2024-02-12T03:10:13.533Z,4.15
2024-02-12T03:12:42.796Z,4.20
2024-02-12T03:15:15.543Z,3.92
2024-02-12T03:17:45.307Z,4.35
2024-02-12T03:20:14.262Z,4.38
2024-02-12T03:22:43.438Z,4.80
2024-02-12T03:25:12.872Z,3.95
2024-02-12T03:27:42.372Z,4.03
2024-02-12T03:32:41.235Z,4.22
2024-02-12T03:35:11.140Z,4.30
2024-02-12T03:37:39.527Z,4.15
2024-02-12T03:40:14.801Z,4.30
2024-02-12T03:42:43.143Z,3.85
2024-02-12T03:45:12.868Z,4.07
2024-02-12T03:47:42.768Z,4.05
2024-02-12T03:50:33.797Z,3.63
2024-02-12T03:53:21.743Z,3.72
2024-02-12T03:56:15.967Z,4.03
2024-02-12T03:59:01.582Z,4.30
2024-02-12T04:01:29.874Z,3.03
2024-02-12T04:04:00.591Z,4.43
2024-02-12T04:06:35.719Z,4.40
2024-02-12T04:09:04.411Z,3.70
2024-02-12T04:11:33.111Z,3.95
2024-02-12T04:14:01.743Z,3.88
2024-02-12T04:16:30.452Z,3.78
2024-02-12T04:19:00.123Z,2.57
2024-02-12T04:21:30.879Z,4.13
2024-02-12T04:23:59.174Z,3.92
2024-02-12T04:26:27.435Z,3.90
2024-02-12T04:28:55.692Z,3.83
2024-02-12T04:31:23.930Z,3.20
2024-02-12T04:33:52.183Z,3.13
2024-02-12T04:36:21.798Z,3.72
2024-02-12T04:38:49.995Z,3.38
2024-02-12T04:41:20.967Z,3.58
2024-02-12T04:43:49.214Z,3.20
2024-02-12T04:46:17.381Z,4.13
2024-02-12T04:48:45.789Z,3.38
2024-02-12T04:51:14.192Z,3.72
2024-02-12T04:53:43.793Z,3.95
2024-02-12T04:56:12.072Z,3.72
2024-02-12T04:58:40.381Z,4.03
2024-02-12T05:01:09.770Z,3.50
2024-02-12T05:03:39.136Z,3.33
2024-02-12T05:06:09.283Z,3.45
2024-02-12T05:08:37.702Z,3.10
2024-02-12T05:11:07.378Z,3.45
2024-02-12T05:13:36.095Z,3.70
2024-02-12T05:16:08.241Z,3.43
2024-02-12T05:18:54.529Z,3.42
2024-02-12T05:21:40.349Z,3.10
2024-02-12T05:24:09.568Z,3.45
2024-02-12T05:26:40.003Z,3.47
2024-02-12T05:29:09.222Z,3.30
2024-02-12T05:31:37.941Z,3.03
2024-02-12T05:34:07.936Z,3.27
2024-02-12T05:36:36.330Z,2.83
2024-02-12T05:39:05.069Z,3.05
2024-02-12T05:41:33.452Z,2.83
2024-02-12T05:44:03.154Z,2.95
2024-02-12T05:49:01.286Z,2.33
2024-02-12T05:51:30.093Z,2.63
2024-02-12T05:53:58.239Z,2.90
2024-02-12T05:56:26.482Z,2.75
2024-02-12T05:58:54.798Z,3.17
2024-02-12T06:01:24.779Z,2.70
2024-02-12T06:03:53.175Z,3.00
2024-02-12T06:06:22.146Z,2.25
2024-02-12T06:08:50.743Z,2.42
2024-02-12T06:11:19.088Z,2.58
2024-02-12T06:13:47.257Z,2.80
2024-02-12T06:16:15.703Z,2.55
2024-02-12T06:18:45.843Z,2.70
2024-02-12T06:21:14.394Z,2.83
2024-02-12T06:23:42.669Z,2.63
2024-02-12T06:26:11.506Z,2.72
2024-02-12T06:28:41.581Z,2.60
2024-02-12T06:31:10.797Z,2.92
2024-02-12T06:33:39.211Z,4.20
2024-02-12T06:36:09.318Z,3.67
2024-02-12T06:38:38.388Z,4.13
2024-02-12T06:41:07.108Z,3.90
2024-02-12T06:43:36.732Z,3.85
2024-02-12T06:46:06.056Z,3.58
2024-02-12T06:48:34.399Z,3.28
2024-02-12T06:51:09.886Z,3.83
2024-02-12T06:53:40.136Z,3.88
2024-02-12T06:56:09.440Z,3.75
2024-02-12T06:58:38.630Z,3.65
2024-02-12T07:01:07.009Z,3.60
2024-02-12T07:03:35.319Z,2.90
2024-02-12T07:06:03.798Z,2.75
2024-02-12T07:08:32.304Z,2.72
2024-02-12T07:11:01.954Z,2.53
2024-02-12T07:13:31.056Z,2.67
2024-02-12T07:15:59.243Z,3.05
2024-02-12T07:18:27.849Z,3.05
2024-02-12T07:20:56.726Z,2.60
2024-02-12T07:23:24.946Z,3.38
2024-02-12T07:25:53.202Z,3.15
2024-02-12T07:28:23.270Z,3.25
2024-02-12T07:30:51.603Z,3.42
2024-02-12T07:33:20.653Z,2.85
2024-02-12T07:35:49.521Z,3.03
2024-02-12T07:38:17.898Z,2.35
2024-02-12T07:40:46.877Z,2.05
2024-02-12T07:43:15.445Z,1.77
2024-02-12T07:45:45.592Z,1.85
2024-02-12T07:48:13.905Z,2.08
2024-02-12T07:50:42.584Z,2.25
2024-02-12T07:53:10.796Z,1.70
2024-02-12T07:55:39.016Z,1.92
2024-02-12T07:58:07.284Z,2.53
2024-02-12T08:00:35.491Z,2.92
2024-02-12T08:03:06.543Z,2.40
2024-02-12T08:05:38.232Z,2.70
2024-02-12T08:08:08.428Z,2.40
2024-02-12T08:10:38.338Z,1.70
2024-02-12T08:13:06.578Z,1.63
2024-02-12T08:15:34.898Z,1.58
2024-02-12T08:18:07.448Z,1.58
2024-02-12T08:20:36.335Z,1.40
2024-02-12T08:23:07.774Z,1.45
2024-02-12T08:25:39.606Z,1.55
2024-02-12T08:28:08.892Z,1.48
2024-02-12T08:30:37.404Z,1.33
2024-02-12T08:33:09.074Z,1.40
2024-02-12T08:35:37.376Z,1.20
2024-02-12T08:38:05.986Z,3.00
2024-02-12T08:40:34.289Z,1.10
2024-02-12T08:43:03.140Z,1.48
2024-02-12T08:45:31.356Z,1.17
2024-02-12T08:47:59.731Z,0.95
2024-02-12T08:50:29.521Z,0.95
2024-02-12T08:52:58.517Z,1.50
2024-02-12T08:55:28.110Z,1.23
2024-02-12T08:57:56.650Z,1.00
2024-02-12T09:00:24.962Z,1.13
2024-02-12T09:02:53.349Z,1.33
2024-02-12T09:05:21.543Z,0.98
2024-02-12T09:07:51.363Z,1.00
2024-02-12T09:10:22.053Z,1.08
2024-02-12T09:12:53.911Z,1.40
2024-02-12T09:15:24.034Z,1.23
2024-02-12T09:17:53.553Z,1.65
2024-02-12T09:20:22.312Z,1.95
2024-02-12T09:22:52.881Z,1.53
2024-02-12T09:25:23.272Z,1.20
2024-02-12T09:27:52.300Z,1.73
2024-02-12T09:30:20.822Z,1.60
2024-02-12T09:32:50.092Z,1.63
2024-02-12T09:37:51.168Z,1.33
2024-02-12T09:40:25.038Z,1.70
2024-02-12T09:42:57.949Z,1.13
2024-02-12T09:45:28.889Z,1.77
2024-02-12T09:47:59.653Z,1.63
2024-02-12T09:50:29.792Z,1.10
2024-02-12T09:52:59.549Z,1.38
2024-02-12T09:55:30.516Z,1.30
2024-02-12T09:58:00.213Z,0.90
2024-02-12T10:00:29.192Z,0.82
2024-02-12T10:02:57.834Z,1.00
2024-02-12T10:05:28.381Z,1.17
2024-02-12T10:07:56.771Z,1.67
2024-02-12T10:10:25.657Z,1.40
2024-02-12T10:12:56.079Z,2.13
2024-02-12T10:15:24.897Z,0.93
2024-02-12T10:17:57.200Z,0.80
2024-02-12T10:20:26.469Z,1.35
2024-02-12T10:22:54.736Z,1.10
2024-02-12T10:25:23.518Z,1.50
2024-02-12T10:27:51.921Z,1.17
2024-02-12T10:30:22.377Z,0.85
2024-02-12T10:32:53.239Z,0.70
2024-02-12T10:35:24.542Z,1.40
2024-02-12T10:37:55.321Z,1.25
2024-02-12T10:40:32.068Z,0.95
2024-02-12T10:43:06.686Z,1.13
2024-02-12T10:45:36.943Z,1.00
2024-02-12T10:48:09.322Z,0.95
2024-02-12T10:50:39.854Z,1.00
2024-02-12T10:53:09.900Z,0.82
2024-02-12T10:55:40.282Z,1.00
2024-02-12T10:58:09.088Z,0.73
2024-02-12T11:00:49.185Z,0.82
2024-02-12T11:03:20.824Z,1.00
2024-02-12T11:05:52.732Z,0.90
2024-02-12T11:08:21.529Z,0.80
2024-02-12T11:10:51.596Z,0.93
2024-02-12T11:13:22.274Z,0.70
2024-02-12T11:15:52.452Z,0.93
2024-02-12T11:18:24.170Z,0.82
2024-02-12T11:20:53.994Z,0.70
2024-02-12T11:23:24.009Z,0.60
2024-02-12T11:25:55.738Z,1.10
2024-02-12T11:28:26.250Z,1.30
2024-02-12T11:30:56.229Z,0.40
2024-02-12T11:33:27.245Z,0.55
2024-02-12T11:36:09.053Z,0.50
2024-02-12T11:38:39.403Z,0.50
2024-02-12T11:41:07.913Z,0.50
2024-02-12T11:43:36.452Z,0.50
2024-02-12T11:46:06.660Z,0.70
2024-02-12T11:48:34.928Z,0.88
2024-02-12T11:51:03.247Z,0.90
2024-02-12T11:53:31.727Z,0.70
2024-02-12T11:56:03.091Z,0.70
2024-02-12T11:58:31.310Z,0.60
2024-02-12T12:01:00.491Z,2.30
2024-02-12T12:03:30.467Z,0.77
2024-02-12T12:05:59.248Z,0.80
2024-02-12T12:08:27.771Z,0.70
2024-02-12T12:11:04.764Z,0.50
2024-02-12T12:13:33.297Z,0.47
2024-02-12T12:16:01.534Z,0.50
2024-02-12T12:18:32.052Z,0.30
2024-02-12T12:21:00.437Z,0.57
2024-02-12T12:23:28.690Z,0.73
2024-02-12T12:25:58.075Z,0.50
2024-02-12T12:28:26.481Z,0.52
2024-02-12T12:30:56.225Z,0.52
2024-02-12T12:33:25.268Z,0.70
2024-02-12T12:35:55.802Z,0.82
2024-02-12T12:38:24.128Z,0.80
2024-02-12T12:40:52.544Z,0.80
2024-02-12T12:43:21.620Z,0.70
2024-02-12T12:45:54.004Z,0.60
2024-02-12T12:48:23.873Z,0.80
2024-02-12T12:50:59.446Z,0.60
2024-02-12T12:53:31.342Z,0.95
2024-02-12T12:56:00.530Z,1.02
2024-02-12T12:58:28.947Z,1.10
2024-02-12T13:00:57.203Z,0.70
2024-02-12T13:03:25.524Z,0.82
2024-02-12T13:05:54.059Z,0.70
2024-02-12T13:08:24.539Z,0.60
2024-02-12T13:10:54.815Z,0.68
2024-02-12T13:13:23.580Z,1.42
2024-02-12T13:15:52.226Z,1.63
2024-02-12T13:18:21.411Z,1.17
2024-02-12T13:20:51.838Z,1.08
2024-02-12T13:23:22.473Z,0.93
2024-02-12T13:25:51.527Z,1.10
2024-02-12T13:28:22.523Z,1.95
2024-02-12T13:30:53.567Z,3.03
2024-02-12T13:33:22.646Z,1.77
2024-02-12T13:35:52.551Z,0.57
2024-02-12T13:38:22.516Z,0.60
2024-02-12T13:40:52.220Z,0.80
2024-02-12T13:43:23.628Z,1.50
2024-02-12T13:45:53.652Z,1.73
2024-02-12T13:48:24.442Z,1.20
2024-02-12T13:50:54.461Z,0.90
2024-02-12T13:53:23.731Z,0.57
2024-02-12T13:55:53.837Z,0.45
2024-02-12T13:58:24.887Z,1.42
2024-02-12T14:03:26.545Z,1.00
2024-02-12T14:05:56.053Z,1.48
2024-02-12T14:10:54.585Z,0.95
2024-02-12T14:13:25.376Z,0.60
2024-02-12T14:16:05.600Z,0.65
2024-02-12T14:18:39.171Z,0.80
2024-02-12T14:21:10.260Z,1.13
2024-02-12T14:23:39.830Z,0.60
2024-02-12T14:26:10.552Z,0.93
2024-02-12T14:28:41.956Z,1.25
2024-02-12T14:31:15.116Z,1.05
2024-02-12T14:33:47.010Z,1.08
2024-02-12T14:36:17.433Z,0.98
2024-02-12T14:38:46.251Z,1.20
2024-02-12T14:41:14.635Z,0.70
2024-02-12T14:43:44.273Z,0.93
2024-02-12T14:46:12.839Z,0.60
2024-02-12T14:48:41.159Z,0.60
2024-02-12T14:51:10.757Z,0.63
2024-02-12T14:53:39.269Z,0.75
2024-02-12T14:56:08.300Z,1.15
2024-02-12T14:58:36.750Z,1.20
2024-02-12T15:01:07.568Z,1.05
2024-02-12T15:03:36.070Z,1.63
2024-02-12T15:06:05.700Z,1.25
2024-02-12T15:08:35.472Z,1.05
2024-02-12T15:11:06.202Z,0.90
2024-02-12T15:13:34.919Z,1.30
2024-02-12T15:16:04.297Z,1.60
2024-02-12T15:18:36.320Z,1.75
2024-02-12T15:21:05.169Z,3.78
2024-02-12T15:23:33.513Z,2.50
2024-02-12T15:26:02.230Z,1.90
2024-02-12T15:28:30.461Z,2.42
2024-02-12T15:30:59.398Z,1.85
2024-02-12T15:33:31.139Z,2.67
2024-02-12T15:36:02.390Z,2.63
2024-02-12T15:38:33.780Z,2.60
2024-02-12T15:41:02.301Z,2.60
2024-02-12T15:43:31.312Z,2.08
2024-02-12T15:46:01.138Z,5.65
2024-02-12T15:48:30.106Z,4.15
2024-02-12T15:51:01.271Z,4.47
2024-02-12T15:53:29.817Z,4.70
2024-02-12T15:55:58.803Z,2.63
2024-02-12T15:58:28.253Z,2.80
2024-02-12T16:00:58.620Z,3.38
2024-02-12T16:03:26.831Z,2.63
2024-02-12T16:06:12.712Z,2.63
2024-02-12T16:08:42.594Z,2.60
2024-02-12T16:11:15.714Z,2.50
2024-02-12T16:13:47.167Z,2.75
2024-02-12T16:16:19.138Z,2.83
2024-02-12T16:18:49.361Z,2.90
2024-02-12T16:21:19.501Z,2.50
2024-02-12T16:23:47.962Z,2.35
2024-02-12T16:26:18.543Z,1.48
2024-02-12T16:28:46.862Z,0.90
2024-02-12T16:31:15.033Z,1.08
2024-02-12T16:33:43.592Z,1.30
2024-02-12T16:36:14.346Z,1.25
2024-02-12T16:38:44.078Z,1.00
2024-02-12T16:41:12.698Z,1.52
2024-02-12T16:43:41.005Z,1.33
2024-02-12T16:46:09.665Z,1.80
2024-02-12T16:48:41.185Z,2.08
2024-02-12T16:51:09.905Z,3.72
2024-02-12T16:53:38.553Z,3.87
2024-02-12T16:56:09.047Z,5.00
2024-02-12T16:58:37.699Z,5.38
2024-02-12T17:01:06.897Z,6.22
2024-02-12T17:03:35.277Z,6.55
2024-02-12T17:06:03.656Z,5.72
2024-02-12T17:08:32.345Z,6.20
2024-02-12T17:11:01.925Z,5.70
2024-02-12T17:15:59.581Z,7.50
2024-02-12T17:18:27.804Z,5.47
2024-02-12T17:20:56.744Z,2.97
2024-02-12T17:23:25.203Z,3.13
2024-02-12T17:25:53.472Z,2.08
2024-02-12T17:28:23.180Z,1.40
2024-02-12T17:30:52.761Z,1.35
2024-02-12T17:33:21.154Z,1.83
2024-02-12T17:35:50.053Z,2.47
2024-02-12T17:38:18.583Z,2.42
2024-02-12T17:40:46.859Z,4.18
2024-02-12T17:43:15.257Z,3.88
2024-02-12T17:45:43.578Z,2.85
2024-02-12T17:48:13.556Z,2.20
2024-02-12T17:50:41.881Z,3.00
2024-02-12T17:53:10.134Z,4.07
2024-02-12T17:55:38.391Z,5.95
2024-02-12T17:58:06.772Z,4.97
2024-02-12T18:00:39.369Z,4.05
2024-02-12T18:03:08.518Z,3.75
2024-02-12T18:05:40.073Z,3.33
2024-02-12T18:08:10.671Z,4.35
2024-02-12T18:10:39.738Z,4.60
2024-02-12T18:13:09.369Z,5.15
2024-02-12T18:15:39.140Z,5.28
2024-02-12T18:18:07.891Z,20.27
2024-02-12T18:20:39.636Z,15.30
2024-02-12T18:23:08.128Z,9.63
2024-02-12T18:25:36.376Z,8.50
2024-02-12T18:28:06.649Z,8.85
2024-02-12T18:30:34.983Z,9.23
2024-02-12T18:33:04.983Z,10.50
2024-02-12T18:35:33.769Z,10.00
2024-02-12T18:38:05.575Z,7.82
2024-02-12T18:40:34.097Z,7.65
2024-02-12T18:43:02.993Z,7.15
2024-02-12T18:45:32.212Z,7.15
2024-02-12T18:48:01.565Z,6.75
2024-02-12T18:50:30.201Z,6.88
2024-02-12T18:52:59.055Z,10.17
2024-02-12T18:55:28.634Z,9.85
2024-02-12T19:00:25.131Z,6.97
2024-02-12T19:02:53.508Z,4.97
2024-02-12T19:05:23.736Z,3.70
2024-02-12T19:07:52.247Z,4.57
2024-02-12T19:10:20.629Z,4.10
2024-02-12T19:12:50.588Z,3.53
2024-02-12T19:15:19.229Z,4.00
2024-02-12T19:17:47.919Z,4.18
2024-02-12T19:20:16.611Z,4.53
2024-02-12T19:22:45.224Z,4.32
2024-02-12T19:25:13.439Z,8.18
2024-02-12T19:27:43.634Z,9.30
2024-02-12T19:30:15.636Z,9.77
2024-02-12T19:32:44.982Z,8.65
2024-02-12T19:35:13.559Z,9.70
2024-02-12T19:37:42.025Z,9.40
2024-02-12T19:40:16.540Z,9.38
2024-02-12T19:42:47.224Z,9.82
2024-02-12T19:45:17.073Z,9.07
2024-02-12T19:47:45.449Z,6.60
2024-02-12T19:50:14.289Z,6.60
2024-02-12T19:52:43.254Z,7.72
2024-02-12T19:55:11.861Z,5.10
2024-02-12T19:57:41.520Z,7.13
2024-02-12T20:00:14.717Z,8.05
2024-02-12T20:02:45.535Z,8.30
2024-02-12T20:05:14.332Z,7.70
2024-02-12T20:07:43.034Z,5.03
2024-02-12T20:10:12.325Z,7.13
2024-02-12T20:12:42.802Z,7.15
2024-02-12T20:15:13.203Z,5.40
2024-02-12T20:17:42.546Z,6.15
2024-02-12T20:20:14.476Z,4.28
2024-02-12T20:22:44.350Z,4.50
2024-02-12T20:25:13.195Z,4.97
2024-02-12T20:27:41.426Z,4.65
2024-02-12T20:30:12.515Z,3.83
2024-02-12T20:32:43.005Z,3.60
2024-02-12T20:35:15.578Z,2.92
2024-02-12T20:37:44.395Z,3.08
2024-02-12T20:40:15.762Z,3.35
2024-02-12T20:42:44.412Z,3.30
2024-02-12T20:45:14.728Z,3.03
2024-02-12T20:47:43.383Z,3.05
2024-02-12T20:50:13.528Z,3.58
2024-02-12T20:52:43.884Z,3.85
2024-02-12T20:55:15.198Z,3.33
2024-02-12T20:57:44.166Z,3.83
2024-02-12T21:00:16.078Z,2.87
2024-02-12T21:02:44.896Z,3.70
2024-02-12T21:05:14.624Z,4.32
2024-02-12T21:07:43.840Z,3.75
2024-02-12T21:10:14.165Z,4.22
2024-02-12T21:12:44.962Z,4.07
2024-02-12T21:15:14.864Z,4.05
2024-02-12T21:17:43.152Z,4.47
2024-02-12T21:20:15.172Z,4.38
2024-02-12T21:22:44.931Z,4.38
2024-02-12T21:25:15.266Z,4.32
2024-02-12T21:27:45.474Z,4.68
2024-02-12T21:30:19.072Z,4.15
2024-02-12T21:32:48.649Z,4.47
2024-02-12T21:35:17.016Z,4.88
2024-02-12T21:37:46.709Z,4.70
2024-02-12T21:40:16.270Z,4.53
2024-02-12T21:42:45.503Z,4.75
2024-02-12T21:45:13.722Z,4.75
2024-02-12T21:47:41.935Z,5.20
2024-02-12T21:50:11.992Z,4.68
2024-02-12T21:52:40.384Z,4.63
2024-02-12T21:55:13.484Z,4.30
2024-02-12T21:57:43.706Z,5.10
2024-02-12T22:00:13.054Z,4.27
2024-02-12T22:02:43.628Z,5.50
2024-02-12T22:05:11.936Z,6.30
2024-02-12T22:07:40.426Z,7.00
2024-02-12T22:10:12.317Z,7.47
2024-02-12T22:12:43.349Z,8.23
2024-02-12T22:15:12.329Z,8.05
2024-02-12T22:17:42.459Z,7.95
2024-02-12T22:20:15.461Z,8.98
2024-02-12T22:22:43.900Z,9.48
2024-02-12T22:25:13.492Z,10.20
2024-02-12T22:27:41.744Z,10.85
2024-02-12T22:30:10.956Z,11.68
2024-02-12T22:32:40.010Z,10.88
2024-02-12T22:35:09.580Z,9.13
2024-02-12T22:42:38.053Z,5.45
2024-02-12T22:45:07.344Z,5.45
2024-02-12T22:47:35.651Z,5.05
2024-02-12T22:50:03.976Z,4.90
2024-02-12T22:52:32.119Z,5.40
2024-02-12T22:55:01.182Z,5.53
2024-02-12T22:57:29.800Z,4.97
2024-02-12T22:59:59.512Z,5.22
2024-02-12T23:02:27.696Z,5.10
2024-02-12T23:04:57.148Z,4.95
2024-02-12T23:07:27.533Z,5.00
2024-02-12T23:09:56.306Z,5.05
2024-02-12T23:12:26.405Z,4.88
2024-02-12T23:14:54.621Z,4.38
2024-02-12T23:17:25.432Z,4.90
2024-02-12T23:19:58.061Z,5.07
2024-02-12T23:22:26.438Z,4.60
2024-02-12T23:24:54.591Z,4.70
2024-02-12T23:27:22.848Z,5.20
2024-02-12T23:29:51.051Z,5.15
2024-02-12T23:32:19.470Z,4.80
2024-02-12T23:34:49.195Z,4.53
2024-02-12T23:37:17.686Z,4.90
2024-02-12T23:39:45.841Z,4.78
2024-02-12T23:42:15.090Z,4.68
2024-02-12T23:44:43.685Z,4.60
2024-02-12T23:47:11.969Z,4.78
2024-02-12T23:49:40.958Z,5.05
2024-02-12T23:52:10.593Z,4.65
2024-02-12T23:57:07.433Z,4.80
2024-02-12T23:59:35.657Z,4.60
